sensor_id;sensor_type;location;lat;lon;timestamp;P1;durP1;ratioP1;P2;durP2;ratioP2
82304;SDS011;71914;47.382;8.168;2023-08-12T00:02:01;3.80;;;2.53;;
82304;SDS011;71914;47.382;8.168;2023-08-12T00:04:29;3.60;;;2.28;;
82304;SDS011;71914;47.382;8.168;2023-08-12T00:06:55;3.70;;;2.58;;
82304;SDS011;71914;47.382;8.168;2023-08-12T00:09:21;3.42;;;2.35;;
82304;SDS011;71914;47.382;8.168;2023-08-12T00:11:47;7.07;;;2.53;;
82304;SDS011;71914;47.382;8.168;2023-08-12T00:14:13;5.13;;;3.03;;
82304;SDS011;71914;47.382;8.168;2023-08-12T00:16:38;5.60;;;2.20;;
82304;SDS011;71914;47.382;8.168;2023-08-12T00:19:04;3.20;;;2.17;;
82304;SDS011;71914;47.382;8.168;2023-08-12T00:21:29;4.95;;;2.70;;
82304;SDS011;71914;47.382;8.168;2023-08-12T00:23:55;3.25;;;2.55;;
82304;SDS011;71914;47.382;8.168;2023-08-12T00:26:22;2.97;;;2.63;;
82304;SDS011;71914;47.382;8.168;2023-08-12T00:28:48;4.35;;;2.70;;
82304;SDS011;71914;47.382;8.168;2023-08-12T00:31:15;3.55;;;2.53;;
82304;SDS011;71914;47.382;8.168;2023-08-12T00:33:40;3.10;;;2.72;;
82304;SDS011;71914;47.382;8.168;2023-08-12T00:36:06;4.28;;;2.15;;
82304;SDS011;71914;47.382;8.168;2023-08-12T00:38:35;4.05;;;2.40;;
82304;SDS011;71914;47.382;8.168;2023-08-12T00:41:00;4.88;;;2.40;;
82304;SDS011;71914;47.382;8.168;2023-08-12T00:43:27;3.58;;;2.67;;
82304;SDS011;71914;47.382;8.168;2023-08-12T00:45:53;3.53;;;2.17;;
82304;SDS011;71914;47.382;8.168;2023-08-12T00:48:18;2.75;;;2.45;;
82304;SDS011;71914;47.382;8.168;2023-08-12T00:50:44;3.95;;;2.83;;
82304;SDS011;71914;47.382;8.168;2023-08-12T00:53:13;4.18;;;2.15;;
82304;SDS011;71914;47.382;8.168;2023-08-12T00:55:41;3.63;;;2.72;;
82304;SDS011;71914;47.382;8.168;2023-08-12T00:58:07;3.95;;;2.70;;
82304;SDS011;71914;47.382;8.168;2023-08-12T01:00:35;4.15;;;2.83;;
82304;SDS011;71914;47.382;8.168;2023-08-12T01:03:00;3.50;;;2.60;;
82304;SDS011;71914;47.382;8.168;2023-08-12T01:05:29;3.78;;;2.65;;
82304;SDS011;71914;47.382;8.168;2023-08-12T01:07:55;5.65;;;2.50;;
82304;SDS011;71914;47.382;8.168;2023-08-12T01:10:21;4.50;;;2.38;;
82304;SDS011;71914;47.382;8.168;2023-08-12T01:12:52;4.47;;;3.13;;
82304;SDS011;71914;47.382;8.168;2023-08-12T01:15:25;4.90;;;2.60;;
82304;SDS011;71914;47.382;8.168;2023-08-12T01:17:53;2.80;;;2.45;;
82304;SDS011;71914;47.382;8.168;2023-08-12T01:20:20;5.22;;;3.05;;
82304;SDS011;71914;47.382;8.168;2023-08-12T01:22:52;5.40;;;3.03;;
82304;SDS011;71914;47.382;8.168;2023-08-12T01:25:23;4.30;;;2.60;;
82304;SDS011;71914;47.382;8.168;2023-08-12T01:27:49;5.22;;;2.97;;
82304;SDS011;71914;47.382;8.168;2023-08-12T01:30:14;3.80;;;2.70;;
82304;SDS011;71914;47.382;8.168;2023-08-12T01:32:42;3.88;;;2.70;;
82304;SDS011;71914;47.382;8.168;2023-08-12T01:37:42;3.08;;;2.58;;
82304;SDS011;71914;47.382;8.168;2023-08-12T01:40:13;4.47;;;2.80;;
82304;SDS011;71914;47.382;8.168;2023-08-12T01:42:45;4.03;;;2.40;;
82304;SDS011;71914;47.382;8.168;2023-08-12T01:45:11;2.70;;;2.28;;
82304;SDS011;71914;47.382;8.168;2023-08-12T01:47:38;5.80;;;3.45;;
82304;SDS011;71914;47.382;8.168;2023-08-12T01:52:29;3.95;;;2.60;;
82304;SDS011;71914;47.382;8.168;2023-08-12T01:54:55;3.63;;;2.75;;
82304;SDS011;71914;47.382;8.168;2023-08-12T01:57:30;3.72;;;2.83;;
82304;SDS011;71914;47.382;8.168;2023-08-12T01:59:57;5.60;;;2.95;;
82304;SDS011;71914;47.382;8.168;2023-08-12T02:02:22;4.47;;;3.15;;
82304;SDS011;71914;47.382;8.168;2023-08-12T02:04:48;3.20;;;2.38;;
82304;SDS011;71914;47.382;8.168;2023-08-12T02:07:13;4.47;;;2.42;;
82304;SDS011;71914;47.382;8.168;2023-08-12T02:09:39;3.05;;;2.50;;
82304;SDS011;71914;47.382;8.168;2023-08-12T02:12:05;3.47;;;2.40;;
82304;SDS011;71914;47.382;8.168;2023-08-12T02:14:31;5.20;;;2.60;;
82304;SDS011;71914;47.382;8.168;2023-08-12T02:17:01;4.60;;;2.85;;
82304;SDS011;71914;47.382;8.168;2023-08-12T02:19:30;3.95;;;3.28;;
82304;SDS011;71914;47.382;8.168;2023-08-12T02:21:55;3.67;;;2.58;;
82304;SDS011;71914;47.382;8.168;2023-08-12T02:24:21;3.33;;;2.50;;
82304;SDS011;71914;47.382;8.168;2023-08-12T02:26:50;3.67;;;2.53;;
82304;SDS011;71914;47.382;8.168;2023-08-12T02:29:15;2.70;;;2.45;;
82304;SDS011;71914;47.382;8.168;2023-08-12T02:31:41;3.75;;;2.92;;
82304;SDS011;71914;47.382;8.168;2023-08-12T02:34:11;4.22;;;2.97;;
82304;SDS011;71914;47.382;8.168;2023-08-12T02:36:36;3.38;;;2.63;;
82304;SDS011;71914;47.382;8.168;2023-08-12T02:39:02;6.32;;;2.85;;
82304;SDS011;71914;47.382;8.168;2023-08-12T02:41:28;3.70;;;2.80;;
82304;SDS011;71914;47.382;8.168;2023-08-12T02:43:54;4.28;;;3.42;;
82304;SDS011;71914;47.382;8.168;2023-08-12T02:46:22;4.07;;;3.03;;
82304;SDS011;71914;47.382;8.168;2023-08-12T02:48:50;3.38;;;2.88;;
82304;SDS011;71914;47.382;8.168;2023-08-12T02:51:17;6.20;;;3.25;;
82304;SDS011;71914;47.382;8.168;2023-08-12T02:53:43;4.65;;;3.20;;
82304;SDS011;71914;47.382;8.168;2023-08-12T02:56:08;3.95;;;3.00;;
82304;SDS011;71914;47.382;8.168;2023-08-12T02:58:34;5.22;;;3.17;;
82304;SDS011;71914;47.382;8.168;2023-08-12T03:00:59;4.97;;;3.30;;
82304;SDS011;71914;47.382;8.168;2023-08-12T03:03:25;3.90;;;2.95;;
82304;SDS011;71914;47.382;8.168;2023-08-12T03:05:51;4.07;;;2.60;;
82304;SDS011;71914;47.382;8.168;2023-08-12T03:08:18;2.85;;;2.53;;
82304;SDS011;71914;47.382;8.168;2023-08-12T03:10:44;3.40;;;3.10;;
82304;SDS011;71914;47.382;8.168;2023-08-12T03:15:38;3.58;;;2.92;;
82304;SDS011;71914;47.382;8.168;2023-08-12T03:18:04;6.50;;;2.90;;
82304;SDS011;71914;47.382;8.168;2023-08-12T03:20:30;5.05;;;3.22;;
82304;SDS011;71914;47.382;8.168;2023-08-12T03:22:56;3.88;;;3.13;;
82304;SDS011;71914;47.382;8.168;2023-08-12T03:25:23;6.07;;;3.17;;
82304;SDS011;71914;47.382;8.168;2023-08-12T03:27:53;5.63;;;3.65;;
82304;SDS011;71914;47.382;8.168;2023-08-12T03:30:19;3.38;;;3.08;;
82304;SDS011;71914;47.382;8.168;2023-08-12T03:32:45;6.07;;;3.08;;
82304;SDS011;71914;47.382;8.168;2023-08-12T03:35:13;6.05;;;3.30;;
82304;SDS011;71914;47.382;8.168;2023-08-12T03:37:39;4.13;;;3.40;;
82304;SDS011;71914;47.382;8.168;2023-08-12T03:40:07;7.30;;;3.03;;
82304;SDS011;71914;47.382;8.168;2023-08-12T03:42:35;5.30;;;3.08;;
82304;SDS011;71914;47.382;8.168;2023-08-12T03:45:00;3.45;;;2.33;;
82304;SDS011;71914;47.382;8.168;2023-08-12T03:47:38;3.65;;;2.85;;
82304;SDS011;71914;47.382;8.168;2023-08-12T03:50:07;3.80;;;3.00;;
82304;SDS011;71914;47.382;8.168;2023-08-12T03:52:35;4.45;;;2.92;;
82304;SDS011;71914;47.382;8.168;2023-08-12T03:55:01;3.92;;;3.10;;
82304;SDS011;71914;47.382;8.168;2023-08-12T03:57:27;4.07;;;3.35;;
82304;SDS011;71914;47.382;8.168;2023-08-12T03:59:58;4.95;;;2.92;;
82304;SDS011;71914;47.382;8.168;2023-08-12T04:02:24;4.57;;;3.05;;
82304;SDS011;71914;47.382;8.168;2023-08-12T04:04:49;3.90;;;3.50;;
82304;SDS011;71914;47.382;8.168;2023-08-12T04:07:15;4.03;;;3.20;;
82304;SDS011;71914;47.382;8.168;2023-08-12T04:09:40;4.90;;;2.75;;
82304;SDS011;71914;47.382;8.168;2023-08-12T04:12:06;3.70;;;3.35;;
82304;SDS011;71914;47.382;8.168;2023-08-12T04:14:32;6.15;;;3.35;;
82304;SDS011;71914;47.382;8.168;2023-08-12T04:16:58;5.40;;;3.40;;
82304;SDS011;71914;47.382;8.168;2023-08-12T04:19:24;6.60;;;4.45;;
82304;SDS011;71914;47.382;8.168;2023-08-12T04:21:50;5.38;;;3.10;;
82304;SDS011;71914;47.382;8.168;2023-08-12T04:24:15;4.90;;;3.53;;
82304;SDS011;71914;47.382;8.168;2023-08-12T04:26:41;4.80;;;3.58;;
82304;SDS011;71914;47.382;8.168;2023-08-12T04:29:06;7.65;;;3.40;;
82304;SDS011;71914;47.382;8.168;2023-08-12T04:31:32;7.22;;;3.50;;
82304;SDS011;71914;47.382;8.168;2023-08-12T04:33:59;5.85;;;3.60;;
82304;SDS011;71914;47.382;8.168;2023-08-12T04:36:25;5.35;;;3.75;;
82304;SDS011;71914;47.382;8.168;2023-08-12T04:38:50;5.80;;;3.65;;
82304;SDS011;71914;47.382;8.168;2023-08-12T04:41:16;5.30;;;3.00;;
82304;SDS011;71914;47.382;8.168;2023-08-12T04:43:44;4.40;;;3.72;;
82304;SDS011;71914;47.382;8.168;2023-08-12T04:46:10;5.43;;;3.22;;
82304;SDS011;71914;47.382;8.168;2023-08-12T04:48:36;4.90;;;3.58;;
82304;SDS011;71914;47.382;8.168;2023-08-12T04:51:03;6.15;;;3.47;;
82304;SDS011;71914;47.382;8.168;2023-08-12T04:53:30;5.60;;;3.55;;
82304;SDS011;71914;47.382;8.168;2023-08-12T04:55:55;4.43;;;3.38;;
82304;SDS011;71914;47.382;8.168;2023-08-12T04:58:21;6.85;;;3.78;;
82304;SDS011;71914;47.382;8.168;2023-08-12T05:00:51;4.70;;;2.97;;
82304;SDS011;71914;47.382;8.168;2023-08-12T05:03:23;12.02;;;4.03;;
82304;SDS011;71914;47.382;8.168;2023-08-12T05:05:49;7.15;;;3.72;;
82304;SDS011;71914;47.382;8.168;2023-08-12T05:08:17;7.07;;;3.00;;
82304;SDS011;71914;47.382;8.168;2023-08-12T05:10:43;4.88;;;3.20;;
82304;SDS011;71914;47.382;8.168;2023-08-12T05:13:09;4.53;;;4.10;;
82304;SDS011;71914;47.382;8.168;2023-08-12T05:15:35;9.60;;;3.53;;
82304;SDS011;71914;47.382;8.168;2023-08-12T05:18:03;6.25;;;3.70;;
82304;SDS011;71914;47.382;8.168;2023-08-12T05:20:29;5.32;;;3.72;;
82304;SDS011;71914;47.382;8.168;2023-08-12T05:23:04;9.75;;;4.57;;
82304;SDS011;71914;47.382;8.168;2023-08-12T05:25:31;4.63;;;3.42;;
82304;SDS011;71914;47.382;8.168;2023-08-12T05:27:57;5.70;;;4.43;;
82304;SDS011;71914;47.382;8.168;2023-08-12T05:30:25;5.32;;;3.45;;
82304;SDS011;71914;47.382;8.168;2023-08-12T05:32:53;5.20;;;3.17;;
82304;SDS011;71914;47.382;8.168;2023-08-12T05:35:19;5.15;;;3.58;;
82304;SDS011;71914;47.382;8.168;2023-08-12T05:37:44;4.25;;;3.85;;
82304;SDS011;71914;47.382;8.168;2023-08-12T05:40:10;6.32;;;3.92;;
82304;SDS011;71914;47.382;8.168;2023-08-12T05:42:38;6.45;;;3.30;;
82304;SDS011;71914;47.382;8.168;2023-08-12T05:45:04;5.72;;;3.70;;
82304;SDS011;71914;47.382;8.168;2023-08-12T05:47:30;6.22;;;3.65;;
82304;SDS011;71914;47.382;8.168;2023-08-12T05:49:57;4.82;;;4.22;;
82304;SDS011;71914;47.382;8.168;2023-08-12T05:52:23;4.47;;;3.80;;
82304;SDS011;71914;47.382;8.168;2023-08-12T05:54:50;6.97;;;4.72;;
82304;SDS011;71914;47.382;8.168;2023-08-12T05:57:16;3.92;;;3.10;;
82304;SDS011;71914;47.382;8.168;2023-08-12T05:59:43;3.70;;;2.97;;
82304;SDS011;71914;47.382;8.168;2023-08-12T06:02:09;4.25;;;3.85;;
82304;SDS011;71914;47.382;8.168;2023-08-12T06:04:34;4.55;;;3.60;;
82304;SDS011;71914;47.382;8.168;2023-08-12T06:07:00;9.25;;;3.65;;
82304;SDS011;71914;47.382;8.168;2023-08-12T06:09:25;4.80;;;3.45;;
82304;SDS011;71914;47.382;8.168;2023-08-12T06:11:54;3.97;;;3.50;;
82304;SDS011;71914;47.382;8.168;2023-08-12T06:14:22;7.72;;;3.50;;
82304;SDS011;71914;47.382;8.168;2023-08-12T06:16:49;6.75;;;3.95;;
82304;SDS011;71914;47.382;8.168;2023-08-12T06:19:15;5.28;;;3.50;;
82304;SDS011;71914;47.382;8.168;2023-08-12T06:21:40;4.43;;;3.38;;
82304;SDS011;71914;47.382;8.168;2023-08-12T06:24:06;6.05;;;4.07;;
82304;SDS011;71914;47.382;8.168;2023-08-12T06:26:32;5.07;;;3.65;;
82304;SDS011;71914;47.382;8.168;2023-08-12T06:29:00;5.38;;;4.05;;
82304;SDS011;71914;47.382;8.168;2023-08-12T06:31:26;7.32;;;3.83;;
82304;SDS011;71914;47.382;8.168;2023-08-12T06:33:53;5.82;;;4.25;;
82304;SDS011;71914;47.382;8.168;2023-08-12T06:36:19;4.88;;;4.10;;
82304;SDS011;71914;47.382;8.168;2023-08-12T06:38:45;4.50;;;3.83;;
82304;SDS011;71914;47.382;8.168;2023-08-12T06:41:10;5.55;;;4.20;;
82304;SDS011;71914;47.382;8.168;2023-08-12T06:43:36;4.97;;;4.47;;
82304;SDS011;71914;47.382;8.168;2023-08-12T06:46:02;6.20;;;4.28;;
82304;SDS011;71914;47.382;8.168;2023-08-12T06:48:28;5.38;;;3.67;;
82304;SDS011;71914;47.382;8.168;2023-08-12T06:50:55;6.28;;;4.05;;
82304;SDS011;71914;47.382;8.168;2023-08-12T06:53:21;6.15;;;4.00;;
82304;SDS011;71914;47.382;8.168;2023-08-12T06:55:47;5.13;;;4.03;;
82304;SDS011;71914;47.382;8.168;2023-08-12T06:58:13;4.85;;;3.50;;
82304;SDS011;71914;47.382;8.168;2023-08-12T07:03:05;5.50;;;4.47;;
82304;SDS011;71914;47.382;8.168;2023-08-12T07:05:30;6.57;;;3.97;;
82304;SDS011;71914;47.382;8.168;2023-08-12T07:07:58;7.22;;;4.50;;
82304;SDS011;71914;47.382;8.168;2023-08-12T07:10:23;6.03;;;4.88;;
82304;SDS011;71914;47.382;8.168;2023-08-12T07:12:49;18.77;;;6.32;;
82304;SDS011;71914;47.382;8.168;2023-08-12T07:15:14;10.02;;;4.72;;
82304;SDS011;71914;47.382;8.168;2023-08-12T07:17:40;5.18;;;4.40;;
82304;SDS011;71914;47.382;8.168;2023-08-12T07:20:06;16.42;;;4.97;;
82304;SDS011;71914;47.382;8.168;2023-08-12T07:22:33;4.95;;;4.45;;
82304;SDS011;71914;47.382;8.168;2023-08-12T07:25:02;6.30;;;4.55;;
82304;SDS011;71914;47.382;8.168;2023-08-12T07:27:28;7.13;;;4.20;;
82304;SDS011;71914;47.382;8.168;2023-08-12T07:29:53;4.65;;;3.88;;
82304;SDS011;71914;47.382;8.168;2023-08-12T07:34:46;5.22;;;4.65;;
82304;SDS011;71914;47.382;8.168;2023-08-12T07:37:11;7.75;;;5.13;;
82304;SDS011;71914;47.382;8.168;2023-08-12T07:39:37;8.20;;;4.60;;
82304;SDS011;71914;47.382;8.168;2023-08-12T07:42:07;5.20;;;4.35;;
82304;SDS011;71914;47.382;8.168;2023-08-12T07:44:32;5.50;;;4.38;;
82304;SDS011;71914;47.382;8.168;2023-08-12T07:46:58;6.50;;;4.65;;
82304;SDS011;71914;47.382;8.168;2023-08-12T07:49:23;6.82;;;4.00;;
82304;SDS011;71914;47.382;8.168;2023-08-12T07:51:49;7.32;;;5.40;;
82304;SDS011;71914;47.382;8.168;2023-08-12T07:54:18;5.28;;;3.88;;
82304;SDS011;71914;47.382;8.168;2023-08-12T07:56:43;5.28;;;4.45;;
82304;SDS011;71914;47.382;8.168;2023-08-12T07:59:10;8.73;;;4.78;;
82304;SDS011;71914;47.382;8.168;2023-08-12T08:01:36;4.80;;;4.40;;
82304;SDS011;71914;47.382;8.168;2023-08-12T08:04:01;5.30;;;3.90;;
82304;SDS011;71914;47.382;8.168;2023-08-12T08:06:27;5.50;;;4.43;;
82304;SDS011;71914;47.382;8.168;2023-08-12T08:08:54;4.88;;;4.10;;
82304;SDS011;71914;47.382;8.168;2023-08-12T08:11:21;6.32;;;4.57;;
82304;SDS011;71914;47.382;8.168;2023-08-12T08:13:49;7.90;;;4.32;;
82304;SDS011;71914;47.382;8.168;2023-08-12T08:16:16;7.22;;;4.60;;
82304;SDS011;71914;47.382;8.168;2023-08-12T08:18:41;7.07;;;4.13;;
82304;SDS011;71914;47.382;8.168;2023-08-12T08:21:07;5.97;;;4.63;;
82304;SDS011;71914;47.382;8.168;2023-08-12T08:23:33;5.38;;;4.22;;
82304;SDS011;71914;47.382;8.168;2023-08-12T08:25:58;5.00;;;3.58;;
82304;SDS011;71914;47.382;8.168;2023-08-12T08:30:49;5.13;;;3.90;;
82304;SDS011;71914;47.382;8.168;2023-08-12T08:35:47;4.40;;;3.15;;
82304;SDS011;71914;47.382;8.168;2023-08-12T08:38:13;5.45;;;3.97;;
82304;SDS011;71914;47.382;8.168;2023-08-12T08:43:04;5.55;;;3.70;;
82304;SDS011;71914;47.382;8.168;2023-08-12T08:45:33;4.05;;;3.65;;
82304;SDS011;71914;47.382;8.168;2023-08-12T08:50:26;4.53;;;3.55;;
82304;SDS011;71914;47.382;8.168;2023-08-12T08:52:53;5.35;;;4.25;;
82304;SDS011;71914;47.382;8.168;2023-08-12T08:55:21;5.78;;;4.07;;
82304;SDS011;71914;47.382;8.168;2023-08-12T08:57:47;5.03;;;3.95;;
82304;SDS011;71914;47.382;8.168;2023-08-12T09:00:14;6.15;;;4.57;;
82304;SDS011;71914;47.382;8.168;2023-08-12T09:02:41;5.43;;;4.07;;
82304;SDS011;71914;47.382;8.168;2023-08-12T09:05:09;5.03;;;3.60;;
82304;SDS011;71914;47.382;8.168;2023-08-12T09:07:41;4.18;;;3.55;;
82304;SDS011;71914;47.382;8.168;2023-08-12T09:10:08;5.95;;;3.80;;
82304;SDS011;71914;47.382;8.168;2023-08-12T09:12:35;5.63;;;4.20;;
82304;SDS011;71914;47.382;8.168;2023-08-12T09:15:04;6.15;;;4.05;;
82304;SDS011;71914;47.382;8.168;2023-08-12T09:17:31;3.95;;;3.45;;
82304;SDS011;71914;47.382;8.168;2023-08-12T09:19:57;4.70;;;3.75;;
82304;SDS011;71914;47.382;8.168;2023-08-12T09:24:51;3.70;;;3.10;;
82304;SDS011;71914;47.382;8.168;2023-08-12T09:27:21;5.07;;;3.45;;
82304;SDS011;71914;47.382;8.168;2023-08-12T09:29:51;5.97;;;4.43;;
82304;SDS011;71914;47.382;8.168;2023-08-12T09:32:21;5.28;;;4.00;;
82304;SDS011;71914;47.382;8.168;2023-08-12T09:34:48;4.35;;;3.55;;
82304;SDS011;71914;47.382;8.168;2023-08-12T09:37:14;4.65;;;3.38;;
82304;SDS011;71914;47.382;8.168;2023-08-12T09:39:44;5.72;;;3.45;;
82304;SDS011;71914;47.382;8.168;2023-08-12T09:42:11;5.05;;;3.65;;
82304;SDS011;71914;47.382;8.168;2023-08-12T09:44:38;5.82;;;3.90;;
82304;SDS011;71914;47.382;8.168;2023-08-12T09:47:05;3.92;;;3.30;;
82304;SDS011;71914;47.382;8.168;2023-08-12T09:49:31;3.97;;;3.22;;
82304;SDS011;71914;47.382;8.168;2023-08-12T09:51:56;5.65;;;3.20;;
82304;SDS011;71914;47.382;8.168;2023-08-12T09:54:22;4.32;;;3.20;;
82304;SDS011;71914;47.382;8.168;2023-08-12T09:56:52;5.75;;;3.35;;
82304;SDS011;71914;47.382;8.168;2023-08-12T09:59:27;3.65;;;2.90;;
82304;SDS011;71914;47.382;8.168;2023-08-12T10:01:56;5.65;;;2.88;;
82304;SDS011;71914;47.382;8.168;2023-08-12T10:04:23;4.38;;;2.90;;
82304;SDS011;71914;47.382;8.168;2023-08-12T10:07:00;3.72;;;2.80;;
82304;SDS011;71914;47.382;8.168;2023-08-12T10:09:27;2.72;;;2.30;;
82304;SDS011;71914;47.382;8.168;2023-08-12T10:11:53;3.05;;;2.67;;
82304;SDS011;71914;47.382;8.168;2023-08-12T10:14:20;4.28;;;2.83;;
82304;SDS011;71914;47.382;8.168;2023-08-12T10:16:51;7.10;;;2.90;;
82304;SDS011;71914;47.382;8.168;2023-08-12T10:19:21;4.82;;;3.03;;
82304;SDS011;71914;47.382;8.168;2023-08-12T10:21:50;6.95;;;3.53;;
82304;SDS011;71914;47.382;8.168;2023-08-12T10:24:23;6.15;;;3.05;;
82304;SDS011;71914;47.382;8.168;2023-08-12T10:26:51;5.45;;;3.58;;
82304;SDS011;71914;47.382;8.168;2023-08-12T10:29:18;4.25;;;3.17;;
82304;SDS011;71914;47.382;8.168;2023-08-12T10:31:44;5.75;;;3.17;;
82304;SDS011;71914;47.382;8.168;2023-08-12T10:34:18;3.88;;;2.50;;
82304;SDS011;71914;47.382;8.168;2023-08-12T10:36:45;5.63;;;3.00;;
82304;SDS011;71914;47.382;8.168;2023-08-12T10:39:19;4.68;;;3.08;;
82304;SDS011;71914;47.382;8.168;2023-08-12T10:41:50;3.65;;;2.50;;
82304;SDS011;71914;47.382;8.168;2023-08-12T10:44:17;3.65;;;2.65;;
82304;SDS011;71914;47.382;8.168;2023-08-12T10:46:49;3.72;;;3.05;;
82304;SDS011;71914;47.382;8.168;2023-08-12T10:49:19;6.13;;;3.63;;
82304;SDS011;71914;47.382;8.168;2023-08-12T10:51:46;3.53;;;2.58;;
82304;SDS011;71914;47.382;8.168;2023-08-12T10:54:13;5.03;;;3.00;;
82304;SDS011;71914;47.382;8.168;2023-08-12T10:59:52;5.25;;;3.20;;
82304;SDS011;71914;47.382;8.168;2023-08-12T11:02:35;4.63;;;3.10;;
82304;SDS011;71914;47.382;8.168;2023-08-12T11:05:07;3.97;;;2.92;;
82304;SDS011;71914;47.382;8.168;2023-08-12T11:07:37;4.53;;;2.67;;
82304;SDS011;71914;47.382;8.168;2023-08-12T11:10:09;4.25;;;2.95;;
82304;SDS011;71914;47.382;8.168;2023-08-12T11:12:40;6.15;;;3.22;;
82304;SDS011;71914;47.382;8.168;2023-08-12T11:15:07;9.68;;;4.00;;
82304;SDS011;71914;47.382;8.168;2023-08-12T11:17:35;5.35;;;3.35;;
82304;SDS011;71914;47.382;8.168;2023-08-12T11:20:04;6.13;;;3.15;;
82304;SDS011;71914;47.382;8.168;2023-08-12T11:22:35;4.03;;;3.53;;
82304;SDS011;71914;47.382;8.168;2023-08-12T11:25:02;4.68;;;2.80;;
82304;SDS011;71914;47.382;8.168;2023-08-12T11:27:28;4.63;;;3.50;;
82304;SDS011;71914;47.382;8.168;2023-08-12T11:32:19;4.27;;;3.87;;
82304;SDS011;71914;47.382;8.168;2023-08-12T11:37:11;5.68;;;4.45;;
82304;SDS011;71914;47.382;8.168;2023-08-12T11:39:37;6.80;;;4.15;;
82304;SDS011;71914;47.382;8.168;2023-08-12T11:42:04;5.15;;;3.65;;
82304;SDS011;71914;47.382;8.168;2023-08-12T11:44:30;5.05;;;3.83;;
82304;SDS011;71914;47.382;8.168;2023-08-12T11:49:21;3.55;;;2.97;;
82304;SDS011;71914;47.382;8.168;2023-08-12T11:54:15;3.80;;;3.08;;
82304;SDS011;71914;47.382;8.168;2023-08-12T11:56:41;5.00;;;3.33;;
82304;SDS011;71914;47.382;8.168;2023-08-12T11:59:08;4.00;;;3.20;;
82304;SDS011;71914;47.382;8.168;2023-08-12T12:03:59;4.13;;;3.13;;
82304;SDS011;71914;47.382;8.168;2023-08-12T12:06:30;4.22;;;2.95;;
82304;SDS011;71914;47.382;8.168;2023-08-12T12:08:59;3.63;;;2.90;;
82304;SDS011;71914;47.382;8.168;2023-08-12T12:11:34;5.05;;;3.97;;
82304;SDS011;71914;47.382;8.168;2023-08-12T12:14:01;4.03;;;2.92;;
82304;SDS011;71914;47.382;8.168;2023-08-12T12:16:36;6.13;;;3.00;;
82304;SDS011;71914;47.382;8.168;2023-08-12T12:19:03;3.42;;;3.05;;
82304;SDS011;71914;47.382;8.168;2023-08-12T12:21:32;5.03;;;2.92;;
82304;SDS011;71914;47.382;8.168;2023-08-12T12:24:04;6.75;;;3.08;;
82304;SDS011;71914;47.382;8.168;2023-08-12T12:26:37;3.63;;;2.95;;
82304;SDS011;71914;47.382;8.168;2023-08-12T12:29:03;5.32;;;2.97;;
82304;SDS011;71914;47.382;8.168;2023-08-12T12:31:32;3.38;;;2.60;;
82304;SDS011;71914;47.382;8.168;2023-08-12T12:33:59;3.45;;;2.83;;
82304;SDS011;71914;47.382;8.168;2023-08-12T12:36:25;3.60;;;2.55;;
82304;SDS011;71914;47.382;8.168;2023-08-12T12:38:53;5.70;;;3.85;;
82304;SDS011;71914;47.382;8.168;2023-08-12T12:41:18;4.13;;;3.20;;
82304;SDS011;71914;47.382;8.168;2023-08-12T12:43:48;3.63;;;3.28;;
82304;SDS011;71914;47.382;8.168;2023-08-12T12:46:14;3.85;;;3.13;;
82304;SDS011;71914;47.382;8.168;2023-08-12T12:48:40;3.90;;;3.00;;
82304;SDS011;71914;47.382;8.168;2023-08-12T12:51:06;3.97;;;2.63;;
82304;SDS011;71914;47.382;8.168;2023-08-12T12:53:31;3.28;;;2.72;;
82304;SDS011;71914;47.382;8.168;2023-08-12T12:55:57;3.60;;;2.58;;
82304;SDS011;71914;47.382;8.168;2023-08-12T12:58:28;4.30;;;2.80;;
82304;SDS011;71914;47.382;8.168;2023-08-12T13:00:55;4.30;;;2.67;;
82304;SDS011;71914;47.382;8.168;2023-08-12T13:03:24;5.15;;;3.05;;
82304;SDS011;71914;47.382;8.168;2023-08-12T13:05:50;3.80;;;2.80;;
82304;SDS011;71914;47.382;8.168;2023-08-12T13:08:16;7.18;;;3.08;;
82304;SDS011;71914;47.382;8.168;2023-08-12T13:10:42;5.78;;;3.30;;
82304;SDS011;71914;47.382;8.168;2023-08-12T13:13:08;4.25;;;2.83;;
82304;SDS011;71914;47.382;8.168;2023-08-12T13:15:34;5.35;;;2.50;;
82304;SDS011;71914;47.382;8.168;2023-08-12T13:18:01;4.50;;;2.97;;
82304;SDS011;71914;47.382;8.168;2023-08-12T13:20:27;4.47;;;3.30;;
82304;SDS011;71914;47.382;8.168;2023-08-12T13:22:52;4.85;;;2.85;;
82304;SDS011;71914;47.382;8.168;2023-08-12T13:25:18;5.82;;;3.15;;
82304;SDS011;71914;47.382;8.168;2023-08-12T13:27:44;3.30;;;3.00;;
82304;SDS011;71914;47.382;8.168;2023-08-12T13:30:10;5.18;;;3.45;;
82304;SDS011;71914;47.382;8.168;2023-08-12T13:32:36;5.40;;;3.22;;
82304;SDS011;71914;47.382;8.168;2023-08-12T13:35:04;3.33;;;2.88;;
82304;SDS011;71914;47.382;8.168;2023-08-12T13:37:30;4.35;;;2.85;;
82304;SDS011;71914;47.382;8.168;2023-08-12T13:39:56;6.05;;;2.97;;
82304;SDS011;71914;47.382;8.168;2023-08-12T13:42:28;4.00;;;3.35;;
82304;SDS011;71914;47.382;8.168;2023-08-12T13:44:56;3.97;;;3.58;;
82304;SDS011;71914;47.382;8.168;2023-08-12T13:49:54;3.08;;;2.78;;
82304;SDS011;71914;47.382;8.168;2023-08-12T13:52:20;3.60;;;3.20;;
82304;SDS011;71914;47.382;8.168;2023-08-12T13:54:46;3.30;;;2.50;;
82304;SDS011;71914;47.382;8.168;2023-08-12T13:57:12;5.28;;;3.13;;
82304;SDS011;71914;47.382;8.168;2023-08-12T13:59:38;3.25;;;2.95;;
82304;SDS011;71914;47.382;8.168;2023-08-12T14:02:05;3.83;;;2.95;;
82304;SDS011;71914;47.382;8.168;2023-08-12T14:04:31;3.15;;;2.80;;
82304;SDS011;71914;47.382;8.168;2023-08-12T14:06:58;3.33;;;2.92;;
82304;SDS011;71914;47.382;8.168;2023-08-12T14:09:25;5.40;;;3.63;;
82304;SDS011;71914;47.382;8.168;2023-08-12T14:11:50;5.93;;;2.97;;
82304;SDS011;71914;47.382;8.168;2023-08-12T14:14:16;3.15;;;2.80;;
82304;SDS011;71914;47.382;8.168;2023-08-12T14:16:42;6.50;;;2.83;;
82304;SDS011;71914;47.382;8.168;2023-08-12T14:19:10;9.35;;;3.17;;
82304;SDS011;71914;47.382;8.168;2023-08-12T14:21:36;6.45;;;3.35;;
82304;SDS011;71914;47.382;8.168;2023-08-12T14:24:03;4.93;;;3.40;;
82304;SDS011;71914;47.382;8.168;2023-08-12T14:26:30;3.63;;;3.20;;
82304;SDS011;71914;47.382;8.168;2023-08-12T14:28:58;4.30;;;3.38;;
82304;SDS011;71914;47.382;8.168;2023-08-12T14:31:23;4.85;;;3.53;;
82304;SDS011;71914;47.382;8.168;2023-08-12T14:33:49;4.10;;;3.25;;
82304;SDS011;71914;47.382;8.168;2023-08-12T14:36:14;6.10;;;3.72;;
82304;SDS011;71914;47.382;8.168;2023-08-12T14:38:40;5.72;;;3.80;;
82304;SDS011;71914;47.382;8.168;2023-08-12T14:41:06;4.57;;;3.20;;
82304;SDS011;71914;47.382;8.168;2023-08-12T14:43:33;5.15;;;4.00;;
82304;SDS011;71914;47.382;8.168;2023-08-12T14:45:58;6.97;;;3.60;;
82304;SDS011;71914;47.382;8.168;2023-08-12T14:48:27;5.38;;;3.10;;
82304;SDS011;71914;47.382;8.168;2023-08-12T14:50:52;5.05;;;3.60;;
82304;SDS011;71914;47.382;8.168;2023-08-12T14:53:18;5.93;;;3.45;;
82304;SDS011;71914;47.382;8.168;2023-08-12T14:55:43;4.93;;;3.53;;
82304;SDS011;71914;47.382;8.168;2023-08-12T14:58:09;9.52;;;3.88;;
82304;SDS011;71914;47.382;8.168;2023-08-12T15:00:36;6.07;;;3.47;;
82304;SDS011;71914;47.382;8.168;2023-08-12T15:03:03;5.80;;;3.58;;
82304;SDS011;71914;47.382;8.168;2023-08-12T15:05:29;5.72;;;3.53;;
82304;SDS011;71914;47.382;8.168;2023-08-12T15:07:55;5.72;;;3.10;;
82304;SDS011;71914;47.382;8.168;2023-08-12T15:10:20;4.43;;;3.35;;
82304;SDS011;71914;47.382;8.168;2023-08-12T15:12:54;5.35;;;4.00;;
82304;SDS011;71914;47.382;8.168;2023-08-12T15:15:20;5.30;;;3.70;;
82304;SDS011;71914;47.382;8.168;2023-08-12T15:17:47;4.90;;;3.45;;
82304;SDS011;71914;47.382;8.168;2023-08-12T15:20:13;4.68;;;3.28;;
82304;SDS011;71914;47.382;8.168;2023-08-12T15:22:38;4.43;;;3.80;;
82304;SDS011;71914;47.382;8.168;2023-08-12T15:25:05;4.75;;;3.28;;
82304;SDS011;71914;47.382;8.168;2023-08-12T15:27:30;4.00;;;3.55;;
82304;SDS011;71914;47.382;8.168;2023-08-12T15:29:56;5.10;;;3.10;;